07MI weather

Scott Airstrip
Lake, Michigan, United States

Public forecast

Using degrees Fahrenheit for public forecast. Weather courtesy of forecast.io.

METAR (pilot weather report)

Closest report is Mount Pleasant Municipal Airport, 19.1 nm (35.4 km) SE. Retrieved 2019/07/23 04:40 UTC (0 seconds ago):

KMOP 230440Z AUTO 27003KT 10SM CLR 16/10 A3004 RMK AO2 T01550095

TAF (pilot weather forecast)

Forecast is more than 12 hours old.

Closest forecast is MBS International Airport, 45.6 nm (84.4 km) ESE. Retrieved 2019/07/22 00:22 UTC (1 day ago):

TAF KMBS 222320Z 2300/2324 04011KT P6SM SCT040 SCT250 FM230100 35006KT P6SM SKC FM231500 34008KT P6SM SCT070 FM231800 34010KT P6SM BKN060